createdAt,value
2018-12-20T00:01:31.796Z,35.92
2018-12-20T00:06:34.380Z,28.62
2018-12-20T00:11:36.250Z,53.73
2018-12-20T00:16:40.271Z,38.05
2018-12-20T00:19:10.733Z,17.50
2018-12-20T00:21:40.286Z,38.20
2018-12-20T00:24:11.431Z,57.03
2018-12-20T00:29:14.589Z,32.90
2018-12-20T00:34:17.075Z,61.15
2018-12-20T00:39:14.432Z,19.98
2018-12-20T00:44:10.783Z,43.65
2018-12-20T00:46:41.750Z,30.02
2018-12-20T00:51:42.449Z,41.95
2018-12-20T00:56:39.739Z,32.20
2018-12-20T00:59:09.665Z,25.90
2018-12-20T01:01:39.274Z,31.12
2018-12-20T01:06:41.824Z,21.85
2018-12-20T01:09:12.777Z,14.98
2018-12-20T01:11:43.581Z,17.45
2018-12-20T01:16:45.435Z,21.02
2018-12-20T01:21:43.144Z,36.42
2018-12-20T01:26:41.158Z,24.67
2018-12-20T01:29:12.914Z,37.90
2018-12-20T01:34:14.878Z,25.10
2018-12-20T01:39:12.554Z,59.60
2018-12-20T01:41:42.729Z,20.17
2018-12-20T01:46:44.107Z,26.12
2018-12-20T01:49:14.230Z,39.55
2018-12-20T01:54:15.023Z,22.27
2018-12-20T01:59:12.606Z,34.78
2018-12-20T02:04:10.397Z,20.02
2018-12-20T02:06:40.271Z,17.40
2018-12-20T02:11:40.647Z,21.45
2018-12-20T02:16:37.457Z,16.55
2018-12-20T02:21:38.503Z,28.27
2018-12-20T02:26:35.345Z,63.08
2018-12-20T02:31:32.418Z,40.35
2018-12-20T02:34:03.038Z,18.85
2018-12-20T02:36:33.895Z,40.17
2018-12-20T02:41:36.009Z,69.10
2018-12-20T02:44:05.733Z,60.78
2018-12-20T02:46:37.243Z,47.00
2018-12-20T02:49:07.384Z,10.25
2018-12-20T02:51:37.863Z,31.00
2018-12-20T02:56:38.793Z,63.08
2018-12-20T03:01:36.178Z,76.00
2018-12-20T03:04:07.142Z,33.40
2018-12-20T03:09:08.753Z,27.20
2018-12-20T03:14:07.127Z,47.35
2018-12-20T03:16:37.492Z,47.45
2018-12-20T03:19:07.982Z,43.23
2018-12-20T03:24:09.417Z,34.40
2018-12-20T03:29:11.939Z,17.25
2018-12-20T03:31:47.623Z,15.32
2018-12-20T03:36:48.167Z,34.50
2018-12-20T03:39:18.675Z,17.20
2018-12-20T03:41:48.285Z,16.25
2018-12-20T03:44:18.052Z,49.50
2018-12-20T03:46:48.504Z,24.27
2018-12-20T03:51:51.777Z,32.03
2018-12-20T03:54:22.155Z,16.20
2018-12-20T03:59:22.822Z,26.33
2018-12-20T04:04:21.040Z,36.68
2018-12-20T04:06:51.429Z,18.73
2018-12-20T04:11:52.415Z,15.30
2018-12-20T04:14:24.755Z,55.23
2018-12-20T04:19:29.408Z,20.30
2018-12-20T04:24:26.116Z,38.35
2018-12-20T04:26:56.673Z,46.08
2018-12-20T04:31:58.680Z,49.45
2018-12-20T04:34:29.117Z,38.92
2018-12-20T04:39:30.408Z,51.88
2018-12-20T04:42:00.670Z,57.67
2018-12-20T04:44:31.068Z,31.87
2018-12-20T04:49:33.524Z,44.42
2018-12-20T04:54:31.028Z,45.33
2018-12-20T04:59:33.554Z,37.83
2018-12-20T05:02:04.107Z,41.98
2018-12-20T05:04:33.458Z,25.48
2018-12-20T05:09:36.547Z,40.78
2018-12-20T05:14:38.265Z,34.33
2018-12-20T05:17:09.305Z,50.08
2018-12-20T05:22:10.305Z,38.90
2018-12-20T05:24:41.071Z,36.93
2018-12-20T05:27:12.106Z,100.72
2018-12-20T05:29:42.417Z,60.83
2018-12-20T05:34:44.299Z,80.75
2018-12-20T05:39:47.745Z,43.55
2018-12-20T05:42:18.004Z,21.82
2018-12-20T05:47:21.135Z,20.97
2018-12-20T05:49:51.227Z,48.98
2018-12-20T05:54:52.901Z,18.65
2018-12-20T05:57:22.776Z,28.90
2018-12-20T06:02:23.688Z,15.70
2018-12-20T06:07:22.458Z,87.45
2018-12-20T06:12:20.031Z,34.88
2018-12-20T06:17:22.026Z,25.75
2018-12-20T06:22:19.632Z,74.95
2018-12-20T06:24:49.668Z,21.07
2018-12-20T06:29:52.138Z,29.48
2018-12-20T06:34:54.508Z,27.67
2018-12-20T06:39:52.954Z,31.10
2018-12-20T06:44:50.991Z,64.27
2018-12-20T06:49:53.621Z,31.17
2018-12-20T06:54:51.002Z,32.35
2018-12-20T06:59:52.711Z,51.53
2018-12-20T07:04:51.703Z,33.65
2018-12-20T07:09:50.510Z,46.65
2018-12-20T07:14:47.670Z,98.87
2018-12-20T07:19:50.383Z,66.75
2018-12-20T07:24:48.235Z,52.08
2018-12-20T07:29:44.584Z,47.85
2018-12-20T07:34:47.984Z,42.90
2018-12-20T07:37:17.476Z,36.53
2018-12-20T07:42:19.258Z,33.60
2018-12-20T07:47:15.591Z,13.40
2018-12-20T07:52:17.712Z,38.40
2018-12-20T07:57:15.665Z,46.73
2018-12-20T08:02:17.221Z,24.02
2018-12-20T08:07:14.379Z,19.45
2018-12-20T08:12:11.742Z,35.85
2018-12-20T08:17:08.350Z,84.55
2018-12-20T08:22:05.618Z,67.85
2018-12-20T08:27:04.792Z,48.52
2018-12-20T08:32:10.470Z,45.45
2018-12-20T08:37:12.664Z,65.85
2018-12-20T08:42:14.742Z,21.95
2018-12-20T08:47:14.583Z,21.10
2018-12-20T08:52:16.583Z,33.90
2018-12-20T08:57:13.140Z,77.70
2018-12-20T09:02:15.502Z,60.63
2018-12-20T09:07:16.302Z,41.73
2018-12-20T09:12:13.822Z,41.48
2018-12-20T09:17:10.223Z,43.17
2018-12-20T09:22:07.623Z,24.72
2018-12-20T09:27:04.141Z,43.02
2018-12-20T09:32:00.305Z,32.60
2018-12-20T09:37:02.942Z,48.15
2018-12-20T09:42:00.350Z,90.32
2018-12-20T09:46:58.995Z,27.90
2018-12-20T09:52:01.714Z,53.13
2018-12-20T09:57:04.125Z,26.02
2018-12-20T10:02:06.352Z,105.92
2018-12-20T10:07:08.144Z,65.72
2018-12-20T10:12:05.102Z,35.68
2018-12-20T10:17:06.551Z,53.10
2018-12-20T10:22:08.383Z,25.00
2018-12-20T10:27:10.391Z,37.53
2018-12-20T10:32:07.662Z,21.15
2018-12-20T10:37:05.426Z,50.20
2018-12-20T10:42:03.502Z,47.85
2018-12-20T10:47:03.472Z,53.92
2018-12-20T10:52:01.502Z,86.67
2018-12-20T10:56:59.063Z,43.58
2018-12-20T11:02:02.313Z,10.68
2018-12-20T11:07:12.630Z,35.38
2018-12-20T11:12:19.471Z,43.83
2018-12-20T11:17:20.027Z,68.05
2018-12-20T11:22:21.921Z,20.70
2018-12-20T11:27:23.660Z,29.32
2018-12-20T11:32:21.234Z,33.55
2018-12-20T11:37:26.021Z,37.93
2018-12-20T11:42:27.889Z,28.23
2018-12-20T11:47:29.069Z,28.05
2018-12-20T11:52:27.022Z,63.98
2018-12-20T11:54:57.194Z,31.25
2018-12-20T12:00:00.382Z,64.67
2018-12-20T12:04:57.792Z,24.00
2018-12-20T12:10:01.832Z,26.70
2018-12-20T12:12:31.921Z,39.30
2018-12-20T12:17:35.670Z,31.65
2018-12-20T12:22:37.249Z,13.93
2018-12-20T12:27:34.628Z,68.47
2018-12-20T12:32:33.022Z,6.35
2018-12-20T12:37:30.749Z,19.07
2018-12-20T12:42:28.302Z,24.50
2018-12-20T12:47:31.268Z,24.20
2018-12-20T12:52:29.065Z,36.93
2018-12-20T12:57:30.482Z,95.57
2018-12-20T13:02:27.511Z,18.30
2018-12-20T13:07:25.982Z,20.48
2018-12-20T13:12:23.341Z,41.10
2018-12-20T13:17:24.990Z,87.08
2018-12-20T13:22:28.038Z,55.28
2018-12-20T13:27:25.592Z,61.53
2018-12-20T13:32:22.755Z,88.85
2018-12-20T13:37:25.904Z,35.78
2018-12-20T13:42:26.822Z,78.00
2018-12-20T13:47:30.663Z,39.58
2018-12-20T13:52:34.615Z,58.05
2018-12-20T13:57:37.664Z,38.00
2018-12-20T14:02:35.022Z,21.37
2018-12-20T14:07:31.979Z,28.95
2018-12-20T14:12:29.698Z,22.62
2018-12-20T14:17:31.014Z,29.67
2018-12-20T14:22:32.256Z,31.25
2018-12-20T14:25:01.928Z,49.13
2018-12-20T14:30:03.639Z,104.45
2018-12-20T14:32:33.974Z,31.12
2018-12-20T14:37:36.854Z,27.10
2018-12-20T14:42:37.681Z,72.47
2018-12-20T14:45:08.416Z,46.73
2018-12-20T14:50:10.387Z,97.55
2018-12-20T14:58:05.152Z,11.33
2018-12-20T15:03:06.359Z,134.95
2018-12-20T15:05:37.056Z,189.32
2018-12-20T15:10:39.219Z,66.05
2018-12-20T15:15:37.749Z,60.73
2018-12-20T15:20:40.574Z,69.07
2018-12-20T15:23:06.663Z,103.60
2018-12-20T15:28:05.983Z,58.23
2018-12-20T15:33:07.884Z,54.10
2018-12-20T15:35:38.337Z,89.77
2018-12-20T15:40:41.063Z,80.80
2018-12-20T15:45:39.791Z,107.83
2018-12-20T15:50:46.415Z,96.85
2018-12-20T15:55:48.295Z,87.30
2018-12-20T16:00:45.752Z,81.67
2018-12-20T16:05:43.945Z,94.55
2018-12-20T16:10:41.712Z,75.62
2018-12-20T16:15:39.232Z,105.10
2018-12-20T16:20:36.576Z,64.90
2018-12-20T16:25:33.693Z,80.87
2018-12-20T16:30:30.123Z,141.15
2018-12-20T16:35:32.294Z,91.10
2018-12-20T16:40:34.142Z,140.43
2018-12-20T16:45:30.735Z,139.12
2018-12-20T16:50:27.950Z,158.78
2018-12-20T16:55:25.424Z,141.07
2018-12-20T17:00:22.984Z,146.85
2018-12-20T17:05:20.536Z,163.03
2018-12-20T17:10:17.215Z,205.50
2018-12-20T17:15:13.882Z,204.07
2018-12-20T17:20:15.498Z,216.25
2018-12-20T17:25:15.294Z,195.10
2018-12-20T17:30:14.031Z,223.72
2018-12-20T17:35:12.778Z,186.00
2018-12-20T17:40:10.379Z,196.32
2018-12-20T17:45:07.818Z,174.85
2018-12-20T17:50:07.383Z,170.60
2018-12-20T17:55:08.858Z,184.50
2018-12-20T18:00:10.737Z,196.43
2018-12-20T18:05:13.537Z,234.92
2018-12-20T18:10:17.112Z,175.00
2018-12-20T18:15:16.135Z,158.22
2018-12-20T18:20:21.219Z,205.47
2018-12-20T18:25:20.114Z,147.00
2018-12-20T18:30:18.536Z,97.00
2018-12-20T18:35:16.656Z,51.70
2018-12-20T18:40:18.833Z,36.10
2018-12-20T18:45:22.784Z,60.05
2018-12-20T18:50:21.136Z,94.15
2018-12-20T18:55:18.060Z,117.00
2018-12-20T19:00:17.106Z,97.75
2018-12-20T19:05:14.345Z,76.67
2018-12-20T19:10:18.096Z,76.90
2018-12-20T19:15:21.177Z,38.48
2018-12-20T19:20:21.320Z,80.05
2018-12-20T19:25:23.646Z,29.90
2018-12-20T19:30:22.029Z,71.80
2018-12-20T19:35:19.180Z,106.37
2018-12-20T19:40:18.179Z,75.83
2018-12-20T19:45:18.263Z,40.45
2018-12-20T19:50:16.505Z,34.83
2018-12-20T19:55:15.024Z,63.63
2018-12-20T20:00:16.432Z,50.35
2018-12-20T20:05:16.047Z,90.22
2018-12-20T20:10:14.306Z,93.87
2018-12-20T20:15:16.988Z,146.13
2018-12-20T20:20:20.395Z,107.30
2018-12-20T20:25:22.766Z,116.05
2018-12-20T20:30:23.991Z,42.85
2018-12-20T20:35:26.152Z,44.83
2018-12-20T20:40:25.546Z,54.65
2018-12-20T20:45:24.354Z,64.05
2018-12-20T20:50:27.586Z,66.62
2018-12-20T20:55:27.430Z,17.67
2018-12-20T21:00:29.620Z,69.17
2018-12-20T21:05:30.657Z,46.65
2018-12-20T21:10:27.945Z,94.25
2018-12-20T21:15:30.178Z,73.80
2018-12-20T21:20:30.861Z,49.75
2018-12-20T21:23:02.616Z,105.85
2018-12-20T21:28:05.183Z,51.92
2018-12-20T21:33:08.095Z,57.38
2018-12-20T21:38:06.815Z,65.15
2018-12-20T21:43:04.135Z,164.90
2018-12-20T21:48:04.575Z,76.05
2018-12-20T21:53:03.701Z,64.27
2018-12-20T21:58:06.751Z,53.10
2018-12-20T22:03:04.560Z,115.85
2018-12-20T22:08:01.258Z,92.60
2018-12-20T22:10:31.817Z,153.80
2018-12-20T22:15:34.657Z,83.70
2018-12-20T22:20:31.696Z,125.97
2018-12-20T22:25:28.855Z,17.80
2018-12-20T22:30:31.743Z,42.55
2018-12-20T22:35:30.145Z,98.75
2018-12-20T22:40:28.936Z,123.60
2018-12-20T22:45:26.056Z,80.80
2018-12-20T22:50:29.863Z,46.68
2018-12-20T22:55:28.027Z,68.85
2018-12-20T23:00:30.416Z,66.95
2018-12-20T23:05:31.855Z,35.23
2018-12-20T23:10:29.991Z,115.22
2018-12-20T23:15:27.072Z,108.78
2018-12-20T23:20:24.899Z,96.70
2018-12-20T23:25:27.256Z,115.35
2018-12-20T23:30:27.855Z,139.25
2018-12-20T23:35:25.895Z,126.38
2018-12-20T23:40:27.855Z,101.05
2018-12-20T23:45:26.336Z,87.50
2018-12-20T23:50:29.215Z,63.48
2018-12-20T23:55:31.816Z,113.65
